sensor_id;sensor_type;location;lat;lon;timestamp;pressure;altitude;pressure_sealevel;temperature;humidity
40918;BME280;26644;50.248;19.032;2023-04-16T00:02:45;97728.94;;;7.05;83.15
40918;BME280;26644;50.248;19.032;2023-04-16T00:05:49;97746.94;;;7.17;83.69
40918;BME280;26644;50.248;19.032;2023-04-16T00:08:56;97737.13;;;7.21;83.45
40918;BME280;26644;50.248;19.032;2023-04-16T00:12:04;97736.31;;;7.25;83.50
40918;BME280;26644;50.248;19.032;2023-04-16T00:15:10;97731.66;;;7.26;82.71
40918;BME280;26644;50.248;19.032;2023-04-16T00:18:14;97742.84;;;7.30;83.16
40918;BME280;26644;50.248;19.032;2023-04-16T00:21:21;97750.75;;;7.31;83.27
40918;BME280;26644;50.248;19.032;2023-04-16T00:24:26;97744.50;;;7.25;83.21
40918;BME280;26644;50.248;19.032;2023-04-16T00:27:34;97728.66;;;7.07;82.14
40918;BME280;26644;50.248;19.032;2023-04-16T00:30:39;97727.03;;;6.90;82.65
40918;BME280;26644;50.248;19.032;2023-04-16T00:33:44;97739.84;;;6.95;83.63
40918;BME280;26644;50.248;19.032;2023-04-16T00:36:48;97743.66;;;6.94;83.57
40918;BME280;26644;50.248;19.032;2023-04-16T00:39:53;97744.47;;;6.94;83.62
40918;BME280;26644;50.248;19.032;2023-04-16T00:43:00;97720.47;;;6.86;83.98
40918;BME280;26644;50.248;19.032;2023-04-16T00:46:07;97739.28;;;6.98;84.10
40918;BME280;26644;50.248;19.032;2023-04-16T00:49:12;97738.50;;;7.08;83.98
40918;BME280;26644;50.248;19.032;2023-04-16T00:52:18;97740.41;;;7.12;83.60
40918;BME280;26644;50.248;19.032;2023-04-16T00:55:23;97749.44;;;7.13;83.22
40918;BME280;26644;50.248;19.032;2023-04-16T00:58:33;97751.31;;;7.12;82.75
40918;BME280;26644;50.248;19.032;2023-04-16T01:01:38;97752.69;;;7.10;82.36
40918;BME280;26644;50.248;19.032;2023-04-16T01:04:43;97752.66;;;7.00;81.12
40918;BME280;26644;50.248;19.032;2023-04-16T01:07:48;97740.34;;;6.66;79.65
40918;BME280;26644;50.248;19.032;2023-04-16T01:10:54;97758.56;;;6.35;79.84
40918;BME280;26644;50.248;19.032;2023-04-16T01:14:01;97763.69;;;6.16;81.26
40918;BME280;26644;50.248;19.032;2023-04-16T01:17:07;97759.28;;;6.04;82.45
40918;BME280;26644;50.248;19.032;2023-04-16T01:20:12;97765.53;;;6.05;84.89
40918;BME280;26644;50.248;19.032;2023-04-16T01:23:20;97751.38;;;6.08;86.32
40918;BME280;26644;50.248;19.032;2023-04-16T01:26:25;97760.69;;;6.22;86.93
40918;BME280;26644;50.248;19.032;2023-04-16T01:29:30;97762.38;;;6.34;87.25
40918;BME280;26644;50.248;19.032;2023-04-16T01:32:35;97766.50;;;6.41;87.23
40918;BME280;26644;50.248;19.032;2023-04-16T01:35:41;97767.31;;;6.47;86.90
40918;BME280;26644;50.248;19.032;2023-04-16T01:38:48;97758.03;;;6.43;87.05
40918;BME280;26644;50.248;19.032;2023-04-16T01:41:54;97774.41;;;6.48;86.68
40918;BME280;26644;50.248;19.032;2023-04-16T01:44:58;97785.59;;;6.41;87.17
40918;BME280;26644;50.248;19.032;2023-04-16T01:48:04;97779.28;;;6.36;87.72
40918;BME280;26644;50.248;19.032;2023-04-16T01:51:09;97785.56;;;6.36;88.07
40918;BME280;26644;50.248;19.032;2023-04-16T01:54:17;97785.00;;;6.34;88.15
40918;BME280;26644;50.248;19.032;2023-04-16T01:57:22;97791.81;;;6.32;88.35
40918;BME280;26644;50.248;19.032;2023-04-16T02:00:27;97786.06;;;6.23;88.45
40918;BME280;26644;50.248;19.032;2023-04-16T02:03:34;97782.00;;;6.25;88.71
40918;BME280;26644;50.248;19.032;2023-04-16T02:06:38;97765.63;;;6.20;88.74
40918;BME280;26644;50.248;19.032;2023-04-16T02:09:46;97782.00;;;6.36;88.70
40918;BME280;26644;50.248;19.032;2023-04-16T02:12:51;97780.94;;;6.42;88.31
40918;BME280;26644;50.248;19.032;2023-04-16T02:15:57;97778.22;;;6.47;87.93
40918;BME280;26644;50.248;19.032;2023-04-16T02:19:18;97773.84;;;6.46;87.56
40918;BME280;26644;50.248;19.032;2023-04-16T02:22:24;97780.16;;;6.52;87.52
40918;BME280;26644;50.248;19.032;2023-04-16T02:25:31;97782.06;;;6.56;87.56
40918;BME280;26644;50.248;19.032;2023-04-16T02:28:37;97769.78;;;6.54;87.24
40918;BME280;26644;50.248;19.032;2023-04-16T02:31:44;97788.63;;;6.60;86.54
40918;BME280;26644;50.248;19.032;2023-04-16T02:34:50;97779.91;;;6.58;86.30
40918;BME280;26644;50.248;19.032;2023-04-16T02:37:55;97777.44;;;6.52;86.62
40918;BME280;26644;50.248;19.032;2023-04-16T02:41:02;97791.38;;;6.66;86.40
40918;BME280;26644;50.248;19.032;2023-04-16T02:44:08;97797.13;;;6.69;86.21
40918;BME280;26644;50.248;19.032;2023-04-16T02:47:13;97799.56;;;6.71;86.10
40918;BME280;26644;50.248;19.032;2023-04-16T02:50:18;97799.56;;;6.71;86.11
40918;BME280;26644;50.248;19.032;2023-04-16T02:53:23;97809.13;;;6.73;85.94
40918;BME280;26644;50.248;19.032;2023-04-16T02:56:30;97815.94;;;6.71;85.62
40918;BME280;26644;50.248;19.032;2023-04-16T02:59:35;97811.56;;;6.75;85.26
40918;BME280;26644;50.248;19.032;2023-04-16T03:02:40;97806.66;;;6.72;84.55
40918;BME280;26644;50.248;19.032;2023-04-16T03:05:46;97809.41;;;6.72;84.50
40918;BME280;26644;50.248;19.032;2023-04-16T03:08:51;97813.75;;;6.73;84.64
40918;BME280;26644;50.248;19.032;2023-04-16T03:11:59;97825.75;;;6.67;84.48
40918;BME280;26644;50.248;19.032;2023-04-16T03:15:04;97810.97;;;6.52;85.02
40918;BME280;26644;50.248;19.032;2023-04-16T03:18:10;97837.19;;;6.64;85.44
40918;BME280;26644;50.248;19.032;2023-04-16T03:21:15;97836.63;;;6.61;85.45
40918;BME280;26644;50.248;19.032;2023-04-16T03:24:20;97834.19;;;6.60;85.83
40918;BME280;26644;50.248;19.032;2023-04-16T03:27:27;97851.66;;;6.69;85.81
40918;BME280;26644;50.248;19.032;2023-04-16T03:30:32;97837.75;;;6.66;86.36
40918;BME280;26644;50.248;19.032;2023-04-16T03:33:38;97849.78;;;6.80;86.47
40918;BME280;26644;50.248;19.032;2023-04-16T03:36:43;97863.47;;;6.90;86.26
40918;BME280;26644;50.248;19.032;2023-04-16T03:39:48;97852.78;;;6.89;85.22
40918;BME280;26644;50.248;19.032;2023-04-16T03:42:56;97860.16;;;6.88;85.57
40918;BME280;26644;50.248;19.032;2023-04-16T03:46:02;97867.00;;;6.96;86.11
40918;BME280;26644;50.248;19.032;2023-04-16T03:49:08;97867.31;;;7.05;85.90
40918;BME280;26644;50.248;19.032;2023-04-16T03:52:13;97862.66;;;7.00;85.46
40918;BME280;26644;50.248;19.032;2023-04-16T03:55:18;97879.31;;;7.04;85.39
40918;BME280;26644;50.248;19.032;2023-04-16T03:58:25;97882.06;;;7.04;85.13
40918;BME280;26644;50.248;19.032;2023-04-16T04:01:32;97867.56;;;6.93;84.94
40918;BME280;26644;50.248;19.032;2023-04-16T04:04:38;97879.84;;;6.95;85.03
40918;BME280;26644;50.248;19.032;2023-04-16T04:07:45;97886.38;;;6.89;83.99
40918;BME280;26644;50.248;19.032;2023-04-16T04:10:49;97881.44;;;6.76;85.08
40918;BME280;26644;50.248;19.032;2023-04-16T04:14:00;97886.63;;;6.83;85.37
40918;BME280;26644;50.248;19.032;2023-04-16T04:17:05;97891.00;;;6.84;85.69
40918;BME280;26644;50.248;19.032;2023-04-16T04:20:11;97902.75;;;6.89;85.48
40918;BME280;26644;50.248;19.032;2023-04-16T04:23:19;97906.00;;;6.91;85.36
40918;BME280;26644;50.248;19.032;2023-04-16T04:26:25;97910.97;;;7.00;85.30
40918;BME280;26644;50.248;19.032;2023-04-16T04:29:33;97916.13;;;6.96;84.23
40918;BME280;26644;50.248;19.032;2023-04-16T04:32:38;97917.44;;;6.83;84.17
40918;BME280;26644;50.248;19.032;2023-04-16T04:35:43;97922.88;;;6.78;83.86
40918;BME280;26644;50.248;19.032;2023-04-16T04:38:50;97932.19;;;6.82;85.20
40918;BME280;26644;50.248;19.032;2023-04-16T04:41:56;97936.28;;;6.85;85.30
40918;BME280;26644;50.248;19.032;2023-04-16T04:45:08;97933.84;;;6.88;85.02
40918;BME280;26644;50.248;19.032;2023-04-16T04:48:15;97930.56;;;6.81;84.19
40918;BME280;26644;50.248;19.032;2023-04-16T04:51:22;97949.06;;;6.74;84.67
40918;BME280;26644;50.248;19.032;2023-04-16T04:54:27;97942.50;;;6.70;85.44
40918;BME280;26644;50.248;19.032;2023-04-16T04:57:34;97959.16;;;6.73;85.90
40918;BME280;26644;50.248;19.032;2023-04-16T05:00:42;97950.97;;;6.68;85.76
40918;BME280;26644;50.248;19.032;2023-04-16T05:03:48;97961.28;;;6.61;85.90
40918;BME280;26644;50.248;19.032;2023-04-16T05:06:52;97965.41;;;6.69;86.39
40918;BME280;26644;50.248;19.032;2023-04-16T05:09:57;97962.72;;;6.74;86.05
40918;BME280;26644;50.248;19.032;2023-04-16T05:13:02;97969.03;;;6.85;86.15
40918;BME280;26644;50.248;19.032;2023-04-16T05:16:10;97952.94;;;6.88;85.87
40918;BME280;26644;50.248;19.032;2023-04-16T05:19:15;97972.97;;;7.09;85.81
40918;BME280;26644;50.248;19.032;2023-04-16T05:22:21;97963.47;;;7.17;85.71
40918;BME280;26644;50.248;19.032;2023-04-16T05:25:25;97973.59;;;7.37;85.04
40918;BME280;26644;50.248;19.032;2023-04-16T05:28:31;97979.09;;;7.53;84.73
40918;BME280;26644;50.248;19.032;2023-04-16T05:31:38;97979.94;;;7.64;84.32
40918;BME280;26644;50.248;19.032;2023-04-16T05:34:43;97981.59;;;7.80;83.92
40918;BME280;26644;50.248;19.032;2023-04-16T05:37:48;97981.03;;;7.93;83.03
40918;BME280;26644;50.248;19.032;2023-04-16T05:40:54;97984.88;;;8.08;82.49
40918;BME280;26644;50.248;19.032;2023-04-16T05:44:01;97973.38;;;8.16;82.21
40918;BME280;26644;50.248;19.032;2023-04-16T05:47:09;97973.94;;;8.28;81.91
40918;BME280;26644;50.248;19.032;2023-04-16T05:50:13;97988.91;;;8.47;81.48
40918;BME280;26644;50.248;19.032;2023-04-16T05:53:18;97996.00;;;8.68;80.80
40918;BME280;26644;50.248;19.032;2023-04-16T05:56:23;98001.13;;;8.90;79.92
40918;BME280;26644;50.248;19.032;2023-04-16T05:59:29;98000.00;;;9.07;79.67
40918;BME280;26644;50.248;19.032;2023-04-16T06:02:37;97977.25;;;9.11;78.64
40918;BME280;26644;50.248;19.032;2023-04-16T06:05:43;98005.56;;;9.47;78.16
40918;BME280;26644;50.248;19.032;2023-04-16T06:08:47;98001.44;;;9.54;77.47
40918;BME280;26644;50.248;19.032;2023-04-16T06:11:52;98012.81;;;9.72;77.11
40918;BME280;26644;50.248;19.032;2023-04-16T06:14:58;98023.72;;;9.82;76.90
40918;BME280;26644;50.248;19.032;2023-04-16T06:18:07;98026.06;;;9.99;76.57
40918;BME280;26644;50.248;19.032;2023-04-16T06:21:11;98020.50;;;10.09;76.35
40918;BME280;26644;50.248;19.032;2023-04-16T06:24:17;98022.31;;;10.24;75.53
40918;BME280;26644;50.248;19.032;2023-04-16T06:27:22;98033.34;;;10.49;74.82
40918;BME280;26644;50.248;19.032;2023-04-16T06:30:28;98037.25;;;10.72;73.82
40918;BME280;26644;50.248;19.032;2023-04-16T06:33:35;98045.47;;;11.01;73.46
40918;BME280;26644;50.248;19.032;2023-04-16T06:36:40;98051.13;;;11.77;71.57
40918;BME280;26644;50.248;19.032;2023-04-16T06:39:44;98054.88;;;12.72;69.24
40918;BME280;26644;50.248;19.032;2023-04-16T06:42:50;98039.97;;;13.34;66.38
40918;BME280;26644;50.248;19.032;2023-04-16T06:45:54;98057.94;;;14.18;64.41
40918;BME280;26644;50.248;19.032;2023-04-16T06:49:02;98056.91;;;15.05;62.43
40918;BME280;26644;50.248;19.032;2023-04-16T06:52:07;98045.91;;;15.80;58.74
40918;BME280;26644;50.248;19.032;2023-04-16T06:55:12;98025.28;;;16.21;57.27
40918;BME280;26644;50.248;19.032;2023-04-16T06:58:16;98057.34;;;16.75;54.14
40918;BME280;26644;50.248;19.032;2023-04-16T07:01:23;98067.25;;;16.85;53.53
40918;BME280;26644;50.248;19.032;2023-04-16T07:04:30;98073.13;;;16.83;53.02
40918;BME280;26644;50.248;19.032;2023-04-16T07:07:35;98072.03;;;16.67;53.17
40918;BME280;26644;50.248;19.032;2023-04-16T07:10:40;98060.78;;;16.63;52.77
40918;BME280;26644;50.248;19.032;2023-04-16T07:13:45;98062.19;;;16.87;52.31
40918;BME280;26644;50.248;19.032;2023-04-16T07:16:51;98074.63;;;17.28;51.71
40918;BME280;26644;50.248;19.032;2023-04-16T07:19:59;98070.50;;;17.73;50.24
40918;BME280;26644;50.248;19.032;2023-04-16T07:23:03;98084.91;;;18.17;49.19
40918;BME280;26644;50.248;19.032;2023-04-16T07:26:08;98090.19;;;18.73;47.58
40918;BME280;26644;50.248;19.032;2023-04-16T07:29:13;98088.66;;;19.22;45.08
40918;BME280;26644;50.248;19.032;2023-04-16T07:32:20;98074.31;;;19.20;45.04
40918;BME280;26644;50.248;19.032;2023-04-16T07:35:28;98087.97;;;19.13;45.00
40918;BME280;26644;50.248;19.032;2023-04-16T07:38:33;98095.44;;;18.87;45.28
40918;BME280;26644;50.248;19.032;2023-04-16T07:41:38;98100.16;;;18.53;46.16
40918;BME280;26644;50.248;19.032;2023-04-16T07:44:44;98098.22;;;18.03;46.74
40918;BME280;26644;50.248;19.032;2023-04-16T07:47:49;98101.75;;;17.91;47.57
40918;BME280;26644;50.248;19.032;2023-04-16T07:50:56;98097.81;;;18.43;46.61
40918;BME280;26644;50.248;19.032;2023-04-16T07:54:01;98109.31;;;18.75;46.04
40918;BME280;26644;50.248;19.032;2023-04-16T07:57:06;98107.84;;;18.56;45.22
40918;BME280;26644;50.248;19.032;2023-04-16T08:00:12;98109.03;;;18.47;45.79
40918;BME280;26644;50.248;19.032;2023-04-16T08:03:17;98118.09;;;18.77;46.17
40918;BME280;26644;50.248;19.032;2023-04-16T08:06:25;98123.75;;;19.02;45.15
40918;BME280;26644;50.248;19.032;2023-04-16T08:09:30;98124.31;;;18.62;45.53
40918;BME280;26644;50.248;19.032;2023-04-16T08:12:35;98130.69;;;17.90;46.94
40918;BME280;26644;50.248;19.032;2023-04-16T08:15:41;98132.25;;;17.70;47.42
40918;BME280;26644;50.248;19.032;2023-04-16T08:18:46;98128.84;;;17.64;47.63
40918;BME280;26644;50.248;19.032;2023-04-16T08:21:54;98127.59;;;17.53;47.83
40918;BME280;26644;50.248;19.032;2023-04-16T08:24:59;98120.75;;;17.41;47.86
40918;BME280;26644;50.248;19.032;2023-04-16T08:28:04;98134.63;;;17.41;48.23
40918;BME280;26644;50.248;19.032;2023-04-16T08:31:09;98068.41;;;16.66;49.19
40918;BME280;26644;50.248;19.032;2023-04-16T08:34:14;98104.81;;;16.56;49.92
40918;BME280;26644;50.248;19.032;2023-04-16T08:37:22;98131.97;;;16.98;49.34
40918;BME280;26644;50.248;19.032;2023-04-16T08:40:28;98129.53;;;16.96;49.05
40918;BME280;26644;50.248;19.032;2023-04-16T08:43:37;98128.72;;;16.87;49.80
40918;BME280;26644;50.248;19.032;2023-04-16T08:46:46;98140.66;;;16.70;49.67
40918;BME280;26644;50.248;19.032;2023-04-16T08:49:55;98129.56;;;16.79;50.00
40918;BME280;26644;50.248;19.032;2023-04-16T08:53:06;98113.88;;;17.48;49.24
40918;BME280;26644;50.248;19.032;2023-04-16T08:56:19;98136.66;;;18.01;46.88
40918;BME280;26644;50.248;19.032;2023-04-16T08:59:27;98133.13;;;17.91;46.43
40918;BME280;26644;50.248;19.032;2023-04-16T09:02:33;98141.34;;;18.09;46.53
40918;BME280;26644;50.248;19.032;2023-04-16T09:05:41;98138.59;;;18.72;45.50
40918;BME280;26644;50.248;19.032;2023-04-16T09:08:49;98152.09;;;19.62;43.23
40918;BME280;26644;50.248;19.032;2023-04-16T09:11:58;98147.31;;;19.63;42.23
40918;BME280;26644;50.248;19.032;2023-04-16T09:15:04;98161.47;;;19.57;42.20
40918;BME280;26644;50.248;19.032;2023-04-16T09:18:10;98156.22;;;19.10;42.26
40918;BME280;26644;50.248;19.032;2023-04-16T09:21:15;98158.81;;;18.60;43.38
40918;BME280;26644;50.248;19.032;2023-04-16T09:24:23;98149.28;;;18.19;44.32
40918;BME280;26644;50.248;19.032;2023-04-16T09:27:29;98146.75;;;17.75;44.62
40918;BME280;26644;50.248;19.032;2023-04-16T09:30:36;98144.13;;;17.32;45.41
40918;BME280;26644;50.248;19.032;2023-04-16T09:33:41;98149.25;;;17.12;46.27
40918;BME280;26644;50.248;19.032;2023-04-16T09:36:47;98148.63;;;16.89;47.44
40918;BME280;26644;50.248;19.032;2023-04-16T09:39:56;98156.94;;;16.71;48.31
40918;BME280;26644;50.248;19.032;2023-04-16T09:43:09;98157.41;;;16.38;48.00
40918;BME280;26644;50.248;19.032;2023-04-16T09:46:14;98158.69;;;16.06;47.66
40918;BME280;26644;50.248;19.032;2023-04-16T09:49:19;98158.97;;;15.87;47.79
40918;BME280;26644;50.248;19.032;2023-04-16T09:52:24;98157.66;;;15.84;48.26
40918;BME280;26644;50.248;19.032;2023-04-16T09:55:33;98143.84;;;16.10;47.48
40918;BME280;26644;50.248;19.032;2023-04-16T09:58:37;98156.63;;;16.55;46.84
40918;BME280;26644;50.248;19.032;2023-04-16T10:01:43;98149.56;;;17.10;46.01
40918;BME280;26644;50.248;19.032;2023-04-16T10:04:50;98161.97;;;17.69;45.27
40918;BME280;26644;50.248;19.032;2023-04-16T10:07:59;98168.16;;;18.56;43.50
40918;BME280;26644;50.248;19.032;2023-04-16T10:11:07;98156.13;;;19.40;41.06
40918;BME280;26644;50.248;19.032;2023-04-16T10:14:12;98163.56;;;20.35;39.85
40918;BME280;26644;50.248;19.032;2023-04-16T10:17:17;98173.34;;;20.82;37.81
40918;BME280;26644;50.248;19.032;2023-04-16T10:20:25;98166.31;;;20.59;36.99
40918;BME280;26644;50.248;19.032;2023-04-16T10:23:31;98173.22;;;20.00;38.07
40918;BME280;26644;50.248;19.032;2023-04-16T10:26:40;98174.34;;;19.16;38.55
40918;BME280;26644;50.248;19.032;2023-04-16T10:29:45;98182.19;;;18.59;39.65
40918;BME280;26644;50.248;19.032;2023-04-16T10:32:53;98169.19;;;18.21;41.01
40918;BME280;26644;50.248;19.032;2023-04-16T10:36:09;98172.09;;;17.74;42.83
40918;BME280;26644;50.248;19.032;2023-04-16T10:39:19;98174.59;;;17.40;44.81
40918;BME280;26644;50.248;19.032;2023-04-16T10:42:27;98175.50;;;17.06;45.54
40918;BME280;26644;50.248;19.032;2023-04-16T10:45:37;98156.94;;;16.71;46.25
40918;BME280;26644;50.248;19.032;2023-04-16T10:48:41;98177.00;;;16.94;45.62
40918;BME280;26644;50.248;19.032;2023-04-16T10:51:55;98177.88;;;17.42;44.85
40918;BME280;26644;50.248;19.032;2023-04-16T10:55:02;98175.91;;;17.90;43.12
40918;BME280;26644;50.248;19.032;2023-04-16T10:58:29;98172.91;;;18.04;42.23
40918;BME280;26644;50.248;19.032;2023-04-16T11:01:35;98186.81;;;18.04;42.52
40918;BME280;26644;50.248;19.032;2023-04-16T11:04:45;98184.16;;;18.08;42.90
40918;BME280;26644;50.248;19.032;2023-04-16T11:07:51;98180.41;;;18.04;42.26
40918;BME280;26644;50.248;19.032;2023-04-16T11:10:57;98156.59;;;17.64;42.35
40918;BME280;26644;50.248;19.032;2023-04-16T11:14:07;98173.44;;;17.59;42.35
40918;BME280;26644;50.248;19.032;2023-04-16T11:17:15;98188.81;;;17.48;42.92
40918;BME280;26644;50.248;19.032;2023-04-16T11:20:22;98186.38;;;17.28;43.45
40918;BME280;26644;50.248;19.032;2023-04-16T11:23:29;98180.09;;;17.10;43.57
40918;BME280;26644;50.248;19.032;2023-04-16T11:26:34;98184.69;;;16.89;43.69
40918;BME280;26644;50.248;19.032;2023-04-16T11:29:42;98187.09;;;16.47;44.39
40918;BME280;26644;50.248;19.032;2023-04-16T11:32:46;98184.47;;;16.50;44.90
40918;BME280;26644;50.248;19.032;2023-04-16T11:35:55;98186.25;;;16.46;44.41
40918;BME280;26644;50.248;19.032;2023-04-16T11:39:01;98176.78;;;16.38;44.80
40918;BME280;26644;50.248;19.032;2023-04-16T11:42:07;98164.91;;;16.20;44.27
40918;BME280;26644;50.248;19.032;2023-04-16T11:45:14;98174.47;;;16.14;43.97
40918;BME280;26644;50.248;19.032;2023-04-16T11:48:20;98177.75;;;16.16;43.37
40918;BME280;26644;50.248;19.032;2023-04-16T11:51:24;98179.56;;;16.30;43.19
40918;BME280;26644;50.248;19.032;2023-04-16T11:54:30;98186.41;;;16.41;44.11
40918;BME280;26644;50.248;19.032;2023-04-16T11:57:36;98179.31;;;16.57;43.06
40918;BME280;26644;50.248;19.032;2023-04-16T12:00:45;98171.78;;;16.49;42.67
40918;BME280;26644;50.248;19.032;2023-04-16T12:04:00;98181.09;;;16.53;42.33
40918;BME280;26644;50.248;19.032;2023-04-16T12:07:07;98185.81;;;16.62;42.84
40918;BME280;26644;50.248;19.032;2023-04-16T12:10:13;98180.44;;;16.65;44.24
40918;BME280;26644;50.248;19.032;2023-04-16T12:13:19;98181.09;;;16.53;44.11
40918;BME280;26644;50.248;19.032;2023-04-16T12:16:26;98180.59;;;16.69;43.89
40918;BME280;26644;50.248;19.032;2023-04-16T12:19:32;98180.94;;;16.76;43.87
40918;BME280;26644;50.248;19.032;2023-04-16T12:22:38;98175.06;;;16.86;43.48
40918;BME280;26644;50.248;19.032;2023-04-16T12:25:47;98176.66;;;16.96;42.29
40918;BME280;26644;50.248;19.032;2023-04-16T12:28:52;98169.81;;;16.93;43.17
40918;BME280;26644;50.248;19.032;2023-04-16T12:32:00;98177.31;;;17.02;42.28
40918;BME280;26644;50.248;19.032;2023-04-16T12:35:05;98171.59;;;17.07;42.36
40918;BME280;26644;50.248;19.032;2023-04-16T12:38:11;98167.84;;;17.12;42.86
40918;BME280;26644;50.248;19.032;2023-04-16T12:41:16;98170.28;;;17.13;42.59
40918;BME280;26644;50.248;19.032;2023-04-16T12:44:22;98176.16;;;17.12;42.60
40918;BME280;26644;50.248;19.032;2023-04-16T12:47:30;98172.72;;;17.06;42.96
40918;BME280;26644;50.248;19.032;2023-04-16T12:50:36;98157.44;;;16.91;43.20
40918;BME280;26644;50.248;19.032;2023-04-16T12:53:44;98175.88;;;16.96;43.02
40918;BME280;26644;50.248;19.032;2023-04-16T12:56:49;98175.88;;;16.96;42.89
40918;BME280;26644;50.248;19.032;2023-04-16T12:59:54;98157.75;;;16.89;42.80
40918;BME280;26644;50.248;19.032;2023-04-16T13:03:02;98156.47;;;16.87;42.93
40918;BME280;26644;50.248;19.032;2023-04-16T13:06:07;98176.50;;;17.01;43.38
40918;BME280;26644;50.248;19.032;2023-04-16T13:09:13;98164.25;;;17.11;43.23
40918;BME280;26644;50.248;19.032;2023-04-16T13:12:18;98160.97;;;17.18;42.01
40918;BME280;26644;50.248;19.032;2023-04-16T13:15:23;98159.81;;;17.27;41.04
40918;BME280;26644;50.248;19.032;2023-04-16T13:18:30;98150.47;;;17.32;41.03
40918;BME280;26644;50.248;19.032;2023-04-16T13:21:36;98144.31;;;17.26;42.08
40918;BME280;26644;50.248;19.032;2023-04-16T13:24:40;98158.97;;;17.36;41.71
40918;BME280;26644;50.248;19.032;2023-04-16T13:27:46;98159.25;;;17.43;41.59
40918;BME280;26644;50.248;19.032;2023-04-16T13:30:51;98155.84;;;17.37;41.78
40918;BME280;26644;50.248;19.032;2023-04-16T13:34:00;98154.56;;;17.35;41.97
40918;BME280;26644;50.248;19.032;2023-04-16T13:37:05;98153.09;;;17.37;41.62
40918;BME280;26644;50.248;19.032;2023-04-16T13:40:10;98146.25;;;17.26;41.40
40918;BME280;26644;50.248;19.032;2023-04-16T13:43:15;98148.84;;;17.31;41.71
40918;BME280;26644;50.248;19.032;2023-04-16T13:46:20;98154.09;;;17.33;41.42
40918;BME280;26644;50.248;19.032;2023-04-16T13:49:28;98150.00;;;17.30;41.37
40918;BME280;26644;50.248;19.032;2023-04-16T13:52:34;98142.03;;;17.20;41.40
40918;BME280;26644;50.248;19.032;2023-04-16T13:55:38;98135.25;;;16.82;41.61
40918;BME280;26644;50.248;19.032;2023-04-16T13:58:44;98140.00;;;16.82;41.66
40918;BME280;26644;50.248;19.032;2023-04-16T14:01:48;98126.63;;;16.66;41.76
40918;BME280;26644;50.248;19.032;2023-04-16T14:04:57;98140.50;;;16.66;41.33
40918;BME280;26644;50.248;19.032;2023-04-16T14:08:01;98144.09;;;16.58;41.79
40918;BME280;26644;50.248;19.032;2023-04-16T14:11:06;98146.69;;;16.54;41.95
40918;BME280;26644;50.248;19.032;2023-04-16T14:14:11;98143.72;;;16.42;41.80
40918;BME280;26644;50.248;19.032;2023-04-16T14:17:16;98152.38;;;16.40;41.88
40918;BME280;26644;50.248;19.032;2023-04-16T14:20:23;98136.53;;;16.41;41.71
40918;BME280;26644;50.248;19.032;2023-04-16T14:23:28;98141.78;;;16.51;41.36
40918;BME280;26644;50.248;19.032;2023-04-16T14:26:33;98145.38;;;16.60;40.97
40918;BME280;26644;50.248;19.032;2023-04-16T14:29:38;98144.41;;;16.74;41.07
40918;BME280;26644;50.248;19.032;2023-04-16T14:32:43;98144.72;;;16.81;40.10
40918;BME280;26644;50.248;19.032;2023-04-16T14:35:51;98146.84;;;16.75;40.61
40918;BME280;26644;50.248;19.032;2023-04-16T14:38:56;98148.63;;;16.71;39.97
40918;BME280;26644;50.248;19.032;2023-04-16T14:42:01;98138.72;;;16.62;40.05
40918;BME280;26644;50.248;19.032;2023-04-16T14:45:07;98139.19;;;16.64;39.82
40918;BME280;26644;50.248;19.032;2023-04-16T14:48:13;98137.75;;;16.57;39.60
40918;BME280;26644;50.248;19.032;2023-04-16T14:51:20;98140.13;;;16.50;39.58
40918;BME280;26644;50.248;19.032;2023-04-16T14:54:25;98139.66;;;16.48;39.83
40918;BME280;26644;50.248;19.032;2023-04-16T14:57:30;98142.25;;;16.44;39.96
40918;BME280;26644;50.248;19.032;2023-04-16T15:00:35;98140.97;;;16.33;42.93
40918;BME280;26644;50.248;19.032;2023-04-16T15:03:40;98141.75;;;16.25;43.91
40918;BME280;26644;50.248;19.032;2023-04-16T15:06:48;98146.47;;;16.16;44.23
40918;BME280;26644;50.248;19.032;2023-04-16T15:09:53;98137.19;;;16.11;43.72
40918;BME280;26644;50.248;19.032;2023-04-16T15:12:58;98141.91;;;16.11;43.60
40918;BME280;26644;50.248;19.032;2023-04-16T15:16:03;98140.09;;;16.06;44.34
40918;BME280;26644;50.248;19.032;2023-04-16T15:19:09;98147.94;;;16.04;44.53
40918;BME280;26644;50.248;19.032;2023-04-16T15:22:16;98146.63;;;16.02;44.45
40918;BME280;26644;50.248;19.032;2023-04-16T15:25:21;98140.72;;;15.94;44.46
40918;BME280;26644;50.248;19.032;2023-04-16T15:28:26;98150.66;;;15.96;44.06
40918;BME280;26644;50.248;19.032;2023-04-16T15:31:31;98151.16;;;15.98;44.47
40918;BME280;26644;50.248;19.032;2023-04-16T15:34:36;98146.91;;;15.91;44.52
40918;BME280;26644;50.248;19.032;2023-04-16T15:37:44;98150.19;;;15.93;44.72
40918;BME280;26644;50.248;19.032;2023-04-16T15:40:49;98145.75;;;15.75;44.94
40918;BME280;26644;50.248;19.032;2023-04-16T15:43:54;98154.38;;;15.82;44.76
40918;BME280;26644;50.248;19.032;2023-04-16T15:46:59;98156.63;;;15.80;44.73
40918;BME280;26644;50.248;19.032;2023-04-16T15:50:05;98165.97;;;15.84;44.44
40918;BME280;26644;50.248;19.032;2023-04-16T15:53:13;98167.28;;;15.87;43.85
40918;BME280;26644;50.248;19.032;2023-04-16T15:56:18;98161.72;;;15.87;43.95
40918;BME280;26644;50.248;19.032;2023-04-16T15:59:23;98159.78;;;15.87;44.01
40918;BME280;26644;50.248;19.032;2023-04-16T16:02:28;98171.81;;;15.91;43.80
40918;BME280;26644;50.248;19.032;2023-04-16T16:05:33;98149.16;;;15.81;44.10
40918;BME280;26644;50.248;19.032;2023-04-16T16:08:41;98165.78;;;15.89;45.02
40918;BME280;26644;50.248;19.032;2023-04-16T16:11:46;98171.03;;;15.91;45.32
40918;BME280;26644;50.248;19.032;2023-04-16T16:14:51;98175.25;;;15.88;45.18
40918;BME280;26644;50.248;19.032;2023-04-16T16:17:55;98164.00;;;15.85;45.81
40918;BME280;26644;50.248;19.032;2023-04-16T16:21:01;98154.66;;;15.72;46.09